sensor_id;sensor_type;location;lat;lon;timestamp;P1;durP1;ratioP1;P2;durP2;ratioP2
25409;SDS011;13339;50.840;4.346;2022-11-20T00:00:28;56.93;;;30.37;;
25409;SDS011;13339;50.840;4.346;2022-11-20T00:02:53;55.13;;;29.07;;
25409;SDS011;13339;50.840;4.346;2022-11-20T00:05:19;62.57;;;30.40;;
25409;SDS011;13339;50.840;4.346;2022-11-20T00:07:45;60.53;;;31.27;;
25409;SDS011;13339;50.840;4.346;2022-11-20T00:10:11;53.50;;;29.70;;
25409;SDS011;13339;50.840;4.346;2022-11-20T00:12:37;57.43;;;29.77;;
25409;SDS011;13339;50.840;4.346;2022-11-20T00:15:03;50.90;;;28.93;;
25409;SDS011;13339;50.840;4.346;2022-11-20T00:17:29;51.40;;;29.50;;
25409;SDS011;13339;50.840;4.346;2022-11-20T00:19:55;57.93;;;29.70;;
25409;SDS011;13339;50.840;4.346;2022-11-20T00:22:20;53.00;;;27.80;;
25409;SDS011;13339;50.840;4.346;2022-11-20T00:24:46;50.43;;;28.47;;
25409;SDS011;13339;50.840;4.346;2022-11-20T00:27:11;49.90;;;28.67;;
25409;SDS011;13339;50.840;4.346;2022-11-20T00:29:37;54.80;;;29.13;;
25409;SDS011;13339;50.840;4.346;2022-11-20T00:32:02;56.07;;;29.40;;
25409;SDS011;13339;50.840;4.346;2022-11-20T00:34:28;56.77;;;29.33;;
25409;SDS011;13339;50.840;4.346;2022-11-20T00:36:54;57.60;;;30.37;;
25409;SDS011;13339;50.840;4.346;2022-11-20T00:39:19;51.40;;;27.97;;
25409;SDS011;13339;50.840;4.346;2022-11-20T00:41:45;52.30;;;29.50;;
25409;SDS011;13339;50.840;4.346;2022-11-20T00:44:10;57.20;;;28.40;;
25409;SDS011;13339;50.840;4.346;2022-11-20T00:46:36;61.47;;;29.70;;
25409;SDS011;13339;50.840;4.346;2022-11-20T00:49:01;57.83;;;29.40;;
25409;SDS011;13339;50.840;4.346;2022-11-20T00:51:27;54.70;;;29.23;;
25409;SDS011;13339;50.840;4.346;2022-11-20T00:53:57;56.97;;;28.70;;
25409;SDS011;13339;50.840;4.346;2022-11-20T00:56:22;55.70;;;28.80;;
25409;SDS011;13339;50.840;4.346;2022-11-20T00:58:48;52.53;;;28.27;;
25409;SDS011;13339;50.840;4.346;2022-11-20T01:01:18;56.03;;;28.73;;
25409;SDS011;13339;50.840;4.346;2022-11-20T01:03:47;58.70;;;30.03;;
25409;SDS011;13339;50.840;4.346;2022-11-20T01:06:16;55.20;;;28.93;;
25409;SDS011;13339;50.840;4.346;2022-11-20T01:08:48;51.37;;;27.70;;
25409;SDS011;13339;50.840;4.346;2022-11-20T01:11:16;58.90;;;27.87;;
25409;SDS011;13339;50.840;4.346;2022-11-20T01:13:44;54.40;;;28.57;;
25409;SDS011;13339;50.840;4.346;2022-11-20T01:16:20;54.87;;;28.97;;
25409;SDS011;13339;50.840;4.346;2022-11-20T01:18:48;48.87;;;27.47;;
25409;SDS011;13339;50.840;4.346;2022-11-20T01:21:49;55.27;;;29.60;;
25409;SDS011;13339;50.840;4.346;2022-11-20T01:24:10;56.43;;;28.70;;
25409;SDS011;13339;50.840;4.346;2022-11-20T01:26:38;54.53;;;29.77;;
25409;SDS011;13339;50.840;4.346;2022-11-20T01:29:06;53.93;;;29.30;;
25409;SDS011;13339;50.840;4.346;2022-11-20T01:31:33;54.50;;;28.10;;
25409;SDS011;13339;50.840;4.346;2022-11-20T01:34:01;55.33;;;29.40;;
25409;SDS011;13339;50.840;4.346;2022-11-20T01:36:29;52.67;;;29.33;;
25409;SDS011;13339;50.840;4.346;2022-11-20T01:39:00;55.97;;;30.60;;
25409;SDS011;13339;50.840;4.346;2022-11-20T01:41:29;51.53;;;29.10;;
25409;SDS011;13339;50.840;4.346;2022-11-20T01:44:16;52.63;;;30.43;;
25409;SDS011;13339;50.840;4.346;2022-11-20T01:46:56;59.90;;;29.70;;
25409;SDS011;13339;50.840;4.346;2022-11-20T01:49:39;58.20;;;29.90;;
25409;SDS011;13339;50.840;4.346;2022-11-20T01:52:24;55.87;;;29.30;;
25409;SDS011;13339;50.840;4.346;2022-11-20T01:55:00;52.93;;;29.37;;
25409;SDS011;13339;50.840;4.346;2022-11-20T01:57:29;56.63;;;31.87;;
25409;SDS011;13339;50.840;4.346;2022-11-20T01:59:59;54.67;;;30.10;;
25409;SDS011;13339;50.840;4.346;2022-11-20T02:02:29;53.63;;;29.80;;
25409;SDS011;13339;50.840;4.346;2022-11-20T02:04:55;65.90;;;31.93;;
25409;SDS011;13339;50.840;4.346;2022-11-20T02:07:26;57.97;;;30.63;;
25409;SDS011;13339;50.840;4.346;2022-11-20T02:09:52;65.70;;;31.47;;
25409;SDS011;13339;50.840;4.346;2022-11-20T02:12:18;59.07;;;31.87;;
25409;SDS011;13339;50.840;4.346;2022-11-20T02:15:02;57.87;;;30.83;;
25409;SDS011;13339;50.840;4.346;2022-11-20T02:17:28;57.90;;;30.80;;
25409;SDS011;13339;50.840;4.346;2022-11-20T02:19:54;57.87;;;29.60;;
25409;SDS011;13339;50.840;4.346;2022-11-20T02:22:30;53.13;;;29.27;;
25409;SDS011;13339;50.840;4.346;2022-11-20T02:25:01;52.60;;;28.87;;
25409;SDS011;13339;50.840;4.346;2022-11-20T02:27:28;51.87;;;28.73;;
25409;SDS011;13339;50.840;4.346;2022-11-20T02:29:58;48.43;;;28.60;;
25409;SDS011;13339;50.840;4.346;2022-11-20T02:32:28;55.23;;;28.07;;
25409;SDS011;13339;50.840;4.346;2022-11-20T02:35:06;52.40;;;27.97;;
25409;SDS011;13339;50.840;4.346;2022-11-20T02:37:32;52.13;;;27.90;;
25409;SDS011;13339;50.840;4.346;2022-11-20T02:40:01;53.40;;;27.83;;
25409;SDS011;13339;50.840;4.346;2022-11-20T02:42:27;53.33;;;29.10;;
25409;SDS011;13339;50.840;4.346;2022-11-20T02:44:52;53.83;;;28.40;;
25409;SDS011;13339;50.840;4.346;2022-11-20T02:47:18;55.37;;;29.17;;
25409;SDS011;13339;50.840;4.346;2022-11-20T02:49:43;52.30;;;29.10;;
25409;SDS011;13339;50.840;4.346;2022-11-20T02:52:09;57.83;;;29.93;;
25409;SDS011;13339;50.840;4.346;2022-11-20T02:54:34;54.43;;;28.57;;
25409;SDS011;13339;50.840;4.346;2022-11-20T02:57:00;52.77;;;28.10;;
25409;SDS011;13339;50.840;4.346;2022-11-20T02:59:25;53.20;;;28.53;;
25409;SDS011;13339;50.840;4.346;2022-11-20T03:01:51;54.87;;;29.17;;
25409;SDS011;13339;50.840;4.346;2022-11-20T03:04:16;52.43;;;28.67;;
25409;SDS011;13339;50.840;4.346;2022-11-20T03:06:42;54.13;;;27.53;;
25409;SDS011;13339;50.840;4.346;2022-11-20T03:09:07;49.40;;;26.80;;
25409;SDS011;13339;50.840;4.346;2022-11-20T03:11:34;49.57;;;25.53;;
25409;SDS011;13339;50.840;4.346;2022-11-20T03:14:03;50.67;;;25.80;;
25409;SDS011;13339;50.840;4.346;2022-11-20T03:16:30;45.60;;;25.33;;
25409;SDS011;13339;50.840;4.346;2022-11-20T03:18:56;49.37;;;25.57;;
25409;SDS011;13339;50.840;4.346;2022-11-20T03:21:22;51.70;;;25.53;;
25409;SDS011;13339;50.840;4.346;2022-11-20T03:23:47;49.77;;;25.27;;
25409;SDS011;13339;50.840;4.346;2022-11-20T03:26:14;46.67;;;25.17;;
25409;SDS011;13339;50.840;4.346;2022-11-20T03:28:57;45.03;;;24.20;;
25409;SDS011;13339;50.840;4.346;2022-11-20T03:31:25;45.57;;;25.10;;
25409;SDS011;13339;50.840;4.346;2022-11-20T03:33:53;49.43;;;26.00;;
25409;SDS011;13339;50.840;4.346;2022-11-20T03:36:19;50.50;;;25.97;;
25409;SDS011;13339;50.840;4.346;2022-11-20T03:38:45;46.83;;;24.53;;
25409;SDS011;13339;50.840;4.346;2022-11-20T03:41:14;53.77;;;26.63;;
25409;SDS011;13339;50.840;4.346;2022-11-20T03:43:46;46.23;;;24.53;;
25409;SDS011;13339;50.840;4.346;2022-11-20T03:46:15;50.30;;;25.80;;
25409;SDS011;13339;50.840;4.346;2022-11-20T03:48:41;48.80;;;25.70;;
25409;SDS011;13339;50.840;4.346;2022-11-20T03:53:40;47.67;;;25.37;;
25409;SDS011;13339;50.840;4.346;2022-11-20T03:56:07;46.77;;;24.87;;
25409;SDS011;13339;50.840;4.346;2022-11-20T03:58:33;52.33;;;25.47;;
25409;SDS011;13339;50.840;4.346;2022-11-20T04:01:05;51.67;;;26.73;;
25409;SDS011;13339;50.840;4.346;2022-11-20T04:03:33;49.77;;;25.97;;
25409;SDS011;13339;50.840;4.346;2022-11-20T04:06:06;52.13;;;26.23;;
25409;SDS011;13339;50.840;4.346;2022-11-20T04:08:36;53.40;;;25.60;;
25409;SDS011;13339;50.840;4.346;2022-11-20T04:11:18;49.27;;;25.73;;
25409;SDS011;13339;50.840;4.346;2022-11-20T04:13:46;53.93;;;26.03;;
25409;SDS011;13339;50.840;4.346;2022-11-20T04:16:14;53.00;;;25.50;;
25409;SDS011;13339;50.840;4.346;2022-11-20T04:18:41;49.63;;;26.47;;
25409;SDS011;13339;50.840;4.346;2022-11-20T04:21:06;50.23;;;26.13;;
25409;SDS011;13339;50.840;4.346;2022-11-20T04:23:32;53.93;;;26.93;;
25409;SDS011;13339;50.840;4.346;2022-11-20T04:26:04;55.70;;;27.57;;
25409;SDS011;13339;50.840;4.346;2022-11-20T04:28:32;54.43;;;27.37;;
25409;SDS011;13339;50.840;4.346;2022-11-20T04:31:17;53.90;;;27.23;;
25409;SDS011;13339;50.840;4.346;2022-11-20T04:33:44;55.37;;;27.60;;
25409;SDS011;13339;50.840;4.346;2022-11-20T04:36:14;58.53;;;29.03;;
25409;SDS011;13339;50.840;4.346;2022-11-20T04:38:41;67.03;;;29.97;;
25409;SDS011;13339;50.840;4.346;2022-11-20T04:41:08;66.60;;;28.60;;
25409;SDS011;13339;50.840;4.346;2022-11-20T04:43:45;56.77;;;27.97;;
25409;SDS011;13339;50.840;4.346;2022-11-20T04:46:13;58.13;;;28.53;;
25409;SDS011;13339;50.840;4.346;2022-11-20T04:48:38;63.27;;;28.70;;
25409;SDS011;13339;50.840;4.346;2022-11-20T04:51:04;61.83;;;27.77;;
25409;SDS011;13339;50.840;4.346;2022-11-20T04:53:30;61.67;;;28.13;;
25409;SDS011;13339;50.840;4.346;2022-11-20T04:55:59;61.17;;;28.87;;
25409;SDS011;13339;50.840;4.346;2022-11-20T04:58:29;62.23;;;29.67;;
25409;SDS011;13339;50.840;4.346;2022-11-20T05:01:02;67.03;;;31.17;;
25409;SDS011;13339;50.840;4.346;2022-11-20T05:03:28;72.00;;;31.47;;
25409;SDS011;13339;50.840;4.346;2022-11-20T05:05:54;66.00;;;30.20;;
25409;SDS011;13339;50.840;4.346;2022-11-20T05:08:20;66.00;;;29.90;;
25409;SDS011;13339;50.840;4.346;2022-11-20T05:10:45;69.60;;;31.80;;
25409;SDS011;13339;50.840;4.346;2022-11-20T05:13:11;62.77;;;29.27;;
25409;SDS011;13339;50.840;4.346;2022-11-20T05:15:36;62.57;;;30.40;;
25409;SDS011;13339;50.840;4.346;2022-11-20T05:18:02;69.00;;;32.33;;
25409;SDS011;13339;50.840;4.346;2022-11-20T05:20:27;68.77;;;30.37;;
25409;SDS011;13339;50.840;4.346;2022-11-20T05:22:56;72.00;;;31.63;;
25409;SDS011;13339;50.840;4.346;2022-11-20T05:25:22;65.13;;;30.80;;
25409;SDS011;13339;50.840;4.346;2022-11-20T05:27:48;62.93;;;29.43;;
25409;SDS011;13339;50.840;4.346;2022-11-20T05:30:13;63.93;;;30.37;;
25409;SDS011;13339;50.840;4.346;2022-11-20T05:32:39;68.10;;;30.73;;
25409;SDS011;13339;50.840;4.346;2022-11-20T05:35:05;71.90;;;29.87;;
25409;SDS011;13339;50.840;4.346;2022-11-20T05:37:30;60.43;;;29.33;;
25409;SDS011;13339;50.840;4.346;2022-11-20T05:39:56;71.90;;;30.57;;
25409;SDS011;13339;50.840;4.346;2022-11-20T05:42:22;68.40;;;30.47;;
25409;SDS011;13339;50.840;4.346;2022-11-20T05:44:57;64.47;;;29.77;;
25409;SDS011;13339;50.840;4.346;2022-11-20T05:47:27;66.77;;;30.50;;
25409;SDS011;13339;50.840;4.346;2022-11-20T05:49:57;67.60;;;30.20;;
25409;SDS011;13339;50.840;4.346;2022-11-20T05:52:23;70.67;;;31.83;;
25409;SDS011;13339;50.840;4.346;2022-11-20T05:54:49;68.40;;;31.03;;
25409;SDS011;13339;50.840;4.346;2022-11-20T05:57:14;70.53;;;31.60;;
25409;SDS011;13339;50.840;4.346;2022-11-20T05:59:40;68.07;;;29.77;;
25409;SDS011;13339;50.840;4.346;2022-11-20T06:02:06;77.03;;;32.63;;
25409;SDS011;13339;50.840;4.346;2022-11-20T06:04:32;68.30;;;30.93;;
25409;SDS011;13339;50.840;4.346;2022-11-20T06:06:57;75.27;;;31.13;;
25409;SDS011;13339;50.840;4.346;2022-11-20T06:09:23;73.43;;;30.93;;
25409;SDS011;13339;50.840;4.346;2022-11-20T06:11:48;70.60;;;31.77;;
25409;SDS011;13339;50.840;4.346;2022-11-20T06:14:14;76.17;;;32.13;;
25409;SDS011;13339;50.840;4.346;2022-11-20T06:16:40;76.00;;;32.30;;
25409;SDS011;13339;50.840;4.346;2022-11-20T06:19:05;73.53;;;32.87;;
25409;SDS011;13339;50.840;4.346;2022-11-20T06:21:31;68.67;;;30.87;;
25409;SDS011;13339;50.840;4.346;2022-11-20T06:23:56;71.60;;;31.40;;
25409;SDS011;13339;50.840;4.346;2022-11-20T06:26:23;73.17;;;31.40;;
25409;SDS011;13339;50.840;4.346;2022-11-20T06:28:50;68.30;;;30.43;;
25409;SDS011;13339;50.840;4.346;2022-11-20T06:31:17;73.20;;;32.53;;
25409;SDS011;13339;50.840;4.346;2022-11-20T06:33:45;71.53;;;30.53;;
25409;SDS011;13339;50.840;4.346;2022-11-20T06:36:12;72.17;;;29.37;;
25409;SDS011;13339;50.840;4.346;2022-11-20T06:38:39;73.53;;;30.60;;
25409;SDS011;13339;50.840;4.346;2022-11-20T06:41:05;69.37;;;30.33;;
25409;SDS011;13339;50.840;4.346;2022-11-20T06:43:32;67.43;;;29.93;;
25409;SDS011;13339;50.840;4.346;2022-11-20T06:45:58;71.47;;;30.77;;
25409;SDS011;13339;50.840;4.346;2022-11-20T06:48:25;69.57;;;30.33;;
25409;SDS011;13339;50.840;4.346;2022-11-20T06:50:52;71.45;;;33.17;;
25409;SDS011;13339;50.840;4.346;2022-11-20T06:53:18;68.33;;;30.70;;
25409;SDS011;13339;50.840;4.346;2022-11-20T06:55:44;67.80;;;29.77;;
25409;SDS011;13339;50.840;4.346;2022-11-20T06:58:11;66.53;;;30.03;;
25409;SDS011;13339;50.840;4.346;2022-11-20T07:00:38;60.60;;;30.27;;
25409;SDS011;13339;50.840;4.346;2022-11-20T07:03:04;71.23;;;31.47;;
25409;SDS011;13339;50.840;4.346;2022-11-20T07:05:31;61.10;;;28.97;;
25409;SDS011;13339;50.840;4.346;2022-11-20T07:07:58;61.97;;;28.33;;
25409;SDS011;13339;50.840;4.346;2022-11-20T07:10:24;64.90;;;29.37;;
25409;SDS011;13339;50.840;4.346;2022-11-20T07:12:50;65.27;;;29.27;;
25409;SDS011;13339;50.840;4.346;2022-11-20T07:15:19;71.43;;;34.23;;
25409;SDS011;13339;50.840;4.346;2022-11-20T07:17:46;62.70;;;30.73;;
25409;SDS011;13339;50.840;4.346;2022-11-20T07:20:15;64.20;;;29.90;;
25409;SDS011;13339;50.840;4.346;2022-11-20T07:22:41;59.53;;;29.80;;
25409;SDS011;13339;50.840;4.346;2022-11-20T07:25:07;70.37;;;36.23;;
25409;SDS011;13339;50.840;4.346;2022-11-20T07:27:34;67.63;;;29.83;;
25409;SDS011;13339;50.840;4.346;2022-11-20T07:29:59;57.53;;;28.70;;
25409;SDS011;13339;50.840;4.346;2022-11-20T07:32:25;56.23;;;28.27;;
25409;SDS011;13339;50.840;4.346;2022-11-20T07:34:51;57.93;;;27.50;;
25409;SDS011;13339;50.840;4.346;2022-11-20T07:37:17;59.23;;;29.60;;
25409;SDS011;13339;50.840;4.346;2022-11-20T07:39:42;58.87;;;28.03;;
25409;SDS011;13339;50.840;4.346;2022-11-20T07:42:08;56.80;;;27.23;;
25409;SDS011;13339;50.840;4.346;2022-11-20T07:44:34;59.73;;;28.03;;
25409;SDS011;13339;50.840;4.346;2022-11-20T07:47:00;60.83;;;28.73;;
25409;SDS011;13339;50.840;4.346;2022-11-20T07:49:26;60.63;;;27.33;;
25409;SDS011;13339;50.840;4.346;2022-11-20T07:51:51;58.50;;;26.80;;
25409;SDS011;13339;50.840;4.346;2022-11-20T07:54:20;60.60;;;26.07;;
25409;SDS011;13339;50.840;4.346;2022-11-20T07:56:46;63.70;;;28.33;;
25409;SDS011;13339;50.840;4.346;2022-11-20T07:59:13;62.10;;;27.37;;
25409;SDS011;13339;50.840;4.346;2022-11-20T08:01:39;64.60;;;26.90;;
25409;SDS011;13339;50.840;4.346;2022-11-20T08:04:05;57.23;;;26.47;;
25409;SDS011;13339;50.840;4.346;2022-11-20T08:06:31;61.83;;;26.53;;
25409;SDS011;13339;50.840;4.346;2022-11-20T08:08:56;66.33;;;27.90;;
25409;SDS011;13339;50.840;4.346;2022-11-20T08:11:22;57.70;;;26.23;;
25409;SDS011;13339;50.840;4.346;2022-11-20T08:14:06;54.73;;;25.90;;
25409;SDS011;13339;50.840;4.346;2022-11-20T08:16:47;57.03;;;26.57;;
25409;SDS011;13339;50.840;4.346;2022-11-20T08:19:15;57.90;;;26.40;;
25409;SDS011;13339;50.840;4.346;2022-11-20T08:21:43;56.27;;;25.93;;
25409;SDS011;13339;50.840;4.346;2022-11-20T08:24:09;63.63;;;28.10;;
25409;SDS011;13339;50.840;4.346;2022-11-20T08:26:36;61.83;;;28.47;;
25409;SDS011;13339;50.840;4.346;2022-11-20T08:29:02;62.13;;;26.33;;
25409;SDS011;13339;50.840;4.346;2022-11-20T08:31:28;59.73;;;27.10;;
25409;SDS011;13339;50.840;4.346;2022-11-20T08:33:54;66.97;;;28.70;;
25409;SDS011;13339;50.840;4.346;2022-11-20T08:36:21;64.53;;;27.13;;
25409;SDS011;13339;50.840;4.346;2022-11-20T08:38:51;65.07;;;27.40;;
25409;SDS011;13339;50.840;4.346;2022-11-20T08:41:18;58.47;;;25.93;;
25409;SDS011;13339;50.840;4.346;2022-11-20T08:43:51;64.17;;;27.73;;
25409;SDS011;13339;50.840;4.346;2022-11-20T08:46:36;59.43;;;27.10;;
25409;SDS011;13339;50.840;4.346;2022-11-20T08:49:04;59.87;;;27.17;;
25409;SDS011;13339;50.840;4.346;2022-11-20T08:51:31;61.33;;;27.27;;
25409;SDS011;13339;50.840;4.346;2022-11-20T08:53:57;60.87;;;28.70;;
25409;SDS011;13339;50.840;4.346;2022-11-20T08:56:22;63.17;;;26.93;;
25409;SDS011;13339;50.840;4.346;2022-11-20T08:58:49;60.20;;;26.63;;
25409;SDS011;13339;50.840;4.346;2022-11-20T09:01:19;60.50;;;26.53;;
25409;SDS011;13339;50.840;4.346;2022-11-20T09:03:45;51.97;;;24.83;;
25409;SDS011;13339;50.840;4.346;2022-11-20T09:06:11;54.37;;;25.73;;
25409;SDS011;13339;50.840;4.346;2022-11-20T09:08:37;52.37;;;24.57;;
25409;SDS011;13339;50.840;4.346;2022-11-20T09:11:03;55.43;;;26.97;;
25409;SDS011;13339;50.840;4.346;2022-11-20T09:13:29;54.07;;;25.50;;
25409;SDS011;13339;50.840;4.346;2022-11-20T09:15:56;51.50;;;24.77;;
25409;SDS011;13339;50.840;4.346;2022-11-20T09:18:23;50.43;;;24.73;;
25409;SDS011;13339;50.840;4.346;2022-11-20T09:20:49;55.53;;;25.80;;
25409;SDS011;13339;50.840;4.346;2022-11-20T09:23:15;48.50;;;24.13;;
25409;SDS011;13339;50.840;4.346;2022-11-20T09:25:42;48.07;;;23.83;;
25409;SDS011;13339;50.840;4.346;2022-11-20T09:28:08;56.80;;;24.00;;
25409;SDS011;13339;50.840;4.346;2022-11-20T09:30:33;43.63;;;23.43;;
25409;SDS011;13339;50.840;4.346;2022-11-20T09:32:59;53.77;;;23.73;;
25409;SDS011;13339;50.840;4.346;2022-11-20T09:35:25;42.73;;;23.30;;
25409;SDS011;13339;50.840;4.346;2022-11-20T09:37:50;42.77;;;22.07;;
25409;SDS011;13339;50.840;4.346;2022-11-20T09:40:20;42.53;;;22.10;;
25409;SDS011;13339;50.840;4.346;2022-11-20T09:53:42;38.63;;;20.90;;
25409;SDS011;13339;50.840;4.346;2022-11-20T09:56:21;41.97;;;21.17;;
25409;SDS011;13339;50.840;4.346;2022-11-20T09:58:48;43.30;;;21.03;;
25409;SDS011;13339;50.840;4.346;2022-11-20T10:01:20;39.03;;;18.93;;
25409;SDS011;13339;50.840;4.346;2022-11-20T10:06:21;31.00;;;17.30;;
25409;SDS011;13339;50.840;4.346;2022-11-20T10:14:21;32.83;;;18.73;;
25409;SDS011;13339;50.840;4.346;2022-11-20T10:24:42;23.23;;;11.87;;
25409;SDS011;13339;50.840;4.346;2022-11-20T10:27:19;20.13;;;11.57;;
25409;SDS011;13339;50.840;4.346;2022-11-20T10:30:10;15.67;;;9.57;;
25409;SDS011;13339;50.840;4.346;2022-11-20T10:32:42;17.17;;;8.90;;
25409;SDS011;13339;50.840;4.346;2022-11-20T10:37:53;19.13;;;9.43;;
25409;SDS011;13339;50.840;4.346;2022-11-20T10:40:31;11.83;;;7.10;;
25409;SDS011;13339;50.840;4.346;2022-11-20T10:43:13;17.77;;;7.37;;
25409;SDS011;13339;50.840;4.346;2022-11-20T10:45:50;16.50;;;7.67;;
25409;SDS011;13339;50.840;4.346;2022-11-20T10:48:21;12.73;;;7.00;;
25409;SDS011;13339;50.840;4.346;2022-11-20T10:50:57;11.97;;;7.53;;
25409;SDS011;13339;50.840;4.346;2022-11-20T10:56:46;9.77;;;5.80;;
25409;SDS011;13339;50.840;4.346;2022-11-20T11:02:32;10.03;;;5.87;;
25409;SDS011;13339;50.840;4.346;2022-11-20T11:07:46;14.27;;;6.57;;
25409;SDS011;13339;50.840;4.346;2022-11-20T11:10:18;12.50;;;5.43;;
25409;SDS011;13339;50.840;4.346;2022-11-20T11:13:24;12.17;;;6.03;;
25409;SDS011;13339;50.840;4.346;2022-11-20T11:15:51;11.83;;;6.37;;
25409;SDS011;13339;50.840;4.346;2022-11-20T11:18:33;10.40;;;6.23;;
25409;SDS011;13339;50.840;4.346;2022-11-20T11:21:00;15.27;;;6.60;;
25409;SDS011;13339;50.840;4.346;2022-11-20T11:23:35;13.60;;;5.67;;
25409;SDS011;13339;50.840;4.346;2022-11-20T11:26:04;14.97;;;5.77;;
25409;SDS011;13339;50.840;4.346;2022-11-20T11:28:32;11.87;;;6.73;;
25409;SDS011;13339;50.840;4.346;2022-11-20T11:30:58;11.73;;;6.43;;
25409;SDS011;13339;50.840;4.346;2022-11-20T11:33:25;15.27;;;7.80;;
25409;SDS011;13339;50.840;4.346;2022-11-20T11:35:56;17.00;;;6.50;;
25409;SDS011;13339;50.840;4.346;2022-11-20T11:41:02;17.43;;;6.60;;
25409;SDS011;13339;50.840;4.346;2022-11-20T11:43:31;12.47;;;6.00;;
25409;SDS011;13339;50.840;4.346;2022-11-20T11:48:58;12.00;;;5.10;;
25409;SDS011;13339;50.840;4.346;2022-11-20T11:51:28;9.87;;;5.50;;
25409;SDS011;13339;50.840;4.346;2022-11-20T11:54:03;10.90;;;5.90;;
25409;SDS011;13339;50.840;4.346;2022-11-20T11:56:38;13.03;;;6.40;;
25409;SDS011;13339;50.840;4.346;2022-11-20T11:59:04;9.30;;;5.33;;
25409;SDS011;13339;50.840;4.346;2022-11-20T12:01:44;11.53;;;5.90;;
25409;SDS011;13339;50.840;4.346;2022-11-20T12:07:34;10.47;;;5.43;;
25409;SDS011;13339;50.840;4.346;2022-11-20T12:10:01;7.67;;;4.83;;
25409;SDS011;13339;50.840;4.346;2022-11-20T12:12:30;11.97;;;5.17;;
25409;SDS011;13339;50.840;4.346;2022-11-20T12:15:02;10.40;;;5.73;;
25409;SDS011;13339;50.840;4.346;2022-11-20T12:17:29;13.53;;;5.37;;
25409;SDS011;13339;50.840;4.346;2022-11-20T12:19:55;9.23;;;4.50;;
25409;SDS011;13339;50.840;4.346;2022-11-20T12:23:09;14.00;;;5.40;;
25409;SDS011;13339;50.840;4.346;2022-11-20T12:30:46;13.80;;;4.40;;
25409;SDS011;13339;50.840;4.346;2022-11-20T12:33:38;8.73;;;4.47;;
25409;SDS011;13339;50.840;4.346;2022-11-20T13:04:40;11.00;;;5.43;;
25409;SDS011;13339;50.840;4.346;2022-11-20T13:07:23;9.63;;;5.90;;
25409;SDS011;13339;50.840;4.346;2022-11-20T13:09:52;11.90;;;6.13;;
25409;SDS011;13339;50.840;4.346;2022-11-20T13:15:16;13.03;;;5.60;;
25409;SDS011;13339;50.840;4.346;2022-11-20T13:17:52;10.17;;;5.03;;
25409;SDS011;13339;50.840;4.346;2022-11-20T13:20:21;8.30;;;5.27;;
25409;SDS011;13339;50.840;4.346;2022-11-20T13:22:48;9.53;;;5.93;;
25409;SDS011;13339;50.840;4.346;2022-11-20T13:27:59;11.03;;;5.50;;
25409;SDS011;13339;50.840;4.346;2022-11-20T13:30:29;5.70;;;4.93;;
25409;SDS011;13339;50.840;4.346;2022-11-20T13:36:03;6.73;;;4.60;;
25409;SDS011;13339;50.840;4.346;2022-11-20T13:38:19;10.03;;;4.60;;
25409;SDS011;13339;50.840;4.346;2022-11-20T13:40:52;11.93;;;6.07;;
25409;SDS011;13339;50.840;4.346;2022-11-20T13:43:37;10.83;;;5.73;;
25409;SDS011;13339;50.840;4.346;2022-11-20T13:46:07;8.53;;;5.20;;
25409;SDS011;13339;50.840;4.346;2022-11-20T13:48:38;6.87;;;4.43;;
25409;SDS011;13339;50.840;4.346;2022-11-20T13:51:51;7.73;;;4.20;;
25409;SDS011;13339;50.840;4.346;2022-11-20T13:56:43;4.53;;;3.37;;
25409;SDS011;13339;50.840;4.346;2022-11-20T13:59:31;7.23;;;2.90;;
25409;SDS011;13339;50.840;4.346;2022-11-20T14:02:14;6.87;;;3.40;;
25409;SDS011;13339;50.840;4.346;2022-11-20T14:04:42;4.20;;;3.00;;
25409;SDS011;13339;50.840;4.346;2022-11-20T14:07:14;5.00;;;3.97;;
25409;SDS011;13339;50.840;4.346;2022-11-20T14:09:49;5.00;;;3.67;;
25409;SDS011;13339;50.840;4.346;2022-11-20T14:12:17;5.40;;;3.70;;
25409;SDS011;13339;50.840;4.346;2022-11-20T14:14:49;5.57;;;3.63;;
25409;SDS011;13339;50.840;4.346;2022-11-20T14:19:47;4.93;;;3.43;;
25409;SDS011;13339;50.840;4.346;2022-11-20T14:22:22;5.43;;;3.30;;
25409;SDS011;13339;50.840;4.346;2022-11-20T14:25:00;4.10;;;3.20;;
25409;SDS011;13339;50.840;4.346;2022-11-20T14:27:38;3.93;;;2.70;;
25409;SDS011;13339;50.840;4.346;2022-11-20T14:30:12;4.57;;;2.73;;
25409;SDS011;13339;50.840;4.346;2022-11-20T14:32:42;4.27;;;2.93;;
25409;SDS011;13339;50.840;4.346;2022-11-20T14:35:09;4.37;;;3.63;;
25409;SDS011;13339;50.840;4.346;2022-11-20T14:37:39;6.00;;;2.80;;
25409;SDS011;13339;50.840;4.346;2022-11-20T14:40:22;5.53;;;2.80;;
25409;SDS011;13339;50.840;4.346;2022-11-20T14:42:48;3.43;;;2.53;;
25409;SDS011;13339;50.840;4.346;2022-11-20T14:45:14;4.87;;;2.80;;
25409;SDS011;13339;50.840;4.346;2022-11-20T14:47:41;5.77;;;2.70;;
25409;SDS011;13339;50.840;4.346;2022-11-20T14:50:19;3.13;;;2.80;;
25409;SDS011;13339;50.840;4.346;2022-11-20T14:52:59;4.77;;;3.10;;
25409;SDS011;13339;50.840;4.346;2022-11-20T14:55:26;4.53;;;3.27;;
25409;SDS011;13339;50.840;4.346;2022-11-20T14:58:05;5.77;;;3.00;;
25409;SDS011;13339;50.840;4.346;2022-11-20T15:00:52;4.57;;;2.90;;
25409;SDS011;13339;50.840;4.346;2022-11-20T15:03:23;7.37;;;3.00;;
25409;SDS011;13339;50.840;4.346;2022-11-20T15:05:55;5.40;;;2.50;;
25409;SDS011;13339;50.840;4.346;2022-11-20T15:08:20;3.57;;;2.87;;
25409;SDS011;13339;50.840;4.346;2022-11-20T15:10:47;3.63;;;2.53;;
25409;SDS011;13339;50.840;4.346;2022-11-20T15:13:16;2.93;;;2.40;;
25409;SDS011;13339;50.840;4.346;2022-11-20T15:15:44;5.35;;;2.97;;
25409;SDS011;13339;50.840;4.346;2022-11-20T15:18:13;4.63;;;3.17;;
25409;SDS011;13339;50.840;4.346;2022-11-20T15:20:41;4.37;;;3.13;;
25409;SDS011;13339;50.840;4.346;2022-11-20T15:23:11;6.67;;;3.37;;
25409;SDS011;13339;50.840;4.346;2022-11-20T15:25:39;6.47;;;3.50;;
25409;SDS011;13339;50.840;4.346;2022-11-20T15:28:08;5.07;;;3.30;;
25409;SDS011;13339;50.840;4.346;2022-11-20T15:30:44;6.67;;;3.53;;
25409;SDS011;13339;50.840;4.346;2022-11-20T15:33:11;6.03;;;3.30;;
25409;SDS011;13339;50.840;4.346;2022-11-20T15:35:37;6.43;;;3.77;;
25409;SDS011;13339;50.840;4.346;2022-11-20T15:38:03;9.33;;;3.50;;
25409;SDS011;13339;50.840;4.346;2022-11-20T15:40:29;7.50;;;3.47;;
25409;SDS011;13339;50.840;4.346;2022-11-20T15:42:54;6.70;;;3.53;;
25409;SDS011;13339;50.840;4.346;2022-11-20T15:45:39;8.63;;;4.17;;
25409;SDS011;13339;50.840;4.346;2022-11-20T15:48:11;10.30;;;3.83;;
25409;SDS011;13339;50.840;4.346;2022-11-20T15:50:50;6.03;;;3.60;;
25409;SDS011;13339;50.840;4.346;2022-11-20T15:53:17;9.80;;;4.20;;
25409;SDS011;13339;50.840;4.346;2022-11-20T15:55:43;9.00;;;3.93;;
25409;SDS011;13339;50.840;4.346;2022-11-20T15:58:08;10.83;;;3.67;;
25409;SDS011;13339;50.840;4.346;2022-11-20T16:00:34;5.60;;;3.70;;
25409;SDS011;13339;50.840;4.346;2022-11-20T16:02:59;7.47;;;3.50;;
25409;SDS011;13339;50.840;4.346;2022-11-20T16:05:28;10.07;;;4.10;;
25409;SDS011;13339;50.840;4.346;2022-11-20T16:07:54;11.73;;;4.07;;
25409;SDS011;13339;50.840;4.346;2022-11-20T16:10:20;7.43;;;3.63;;
25409;SDS011;13339;50.840;4.346;2022-11-20T16:12:46;10.40;;;3.73;;
25409;SDS011;13339;50.840;4.346;2022-11-20T16:15:30;10.87;;;4.50;;
25409;SDS011;13339;50.840;4.346;2022-11-20T16:18:12;14.90;;;4.37;;